DAL247A BIKF-KJFK
Flight info
| Callsign | DAL247A |
|---|---|
| Flight time | N/A |
| Altitude | 36000 |
| Route | DELES DCT DOPOD DCT 61N030W 54N050W DCT NEEKO/N0461F360 N616B TOPPS DCT ENE |
| Aircraft | B763/H-SDE3FGHIM3RWXY/LB1 |
Departure
| Time | 2026-05-06 10:19 |
|---|---|
| Airport | Keflavik International Airport (BIKF) |
Arrival
| Time | N/A |
|---|---|
| Airport | John F. Kennedy International Airport (KJFK) |
| Time | Latitude | Longitude | Altitude | Speed | Heading |
|---|---|---|---|---|---|
| 2026-05-06 10:17 | 63.96518 | -22.60548 | 123 ft | 0 kts | 358° |
| 2026-05-06 10:17 | 63.96584 | -22.60549 | 125 ft | 39 kts | 360° |
| 2026-05-06 10:18 | 63.97211 | -22.60552 | 146 ft | 138 kts | 0° |
| 2026-05-06 10:19 | 64.05036 | -22.61712 | 3636 ft | 255 kts | 329° |
| 2026-05-06 10:19 | 64.06210 | -22.64804 | 4339 ft | 267 kts | 299° |
| 2026-05-06 10:19 | 64.06612 | -22.69010 | 5024 ft | 279 kts | 271° |
| 2026-05-06 10:20 | 64.06482 | -22.73535 | 5620 ft | 287 kts | 267° |
| 2026-05-06 10:20 | 64.06440 | -22.75001 | 5877 ft | 288 kts | 268° |
| 2026-05-06 10:20 | 64.06356 | -22.81111 | 6906 ft | 290 kts | 270° |
| 2026-05-06 10:21 | 64.06290 | -22.94932 | 9218 ft | 296 kts | 271° |
| 2026-05-06 10:21 | 64.06266 | -23.01242 | 10336 ft | 296 kts | 273° |
| 2026-05-06 10:22 | 64.03527 | -23.21781 | 11783 ft | 387 kts | 227° |
| 2026-05-06 10:22 | 64.01646 | -23.26180 | 12623 ft | 392 kts | 228° |
| 2026-05-06 10:23 | 63.99790 | -23.30818 | 13466 ft | 396 kts | 228° |
| 2026-05-06 10:23 | 63.97959 | -23.35485 | 14293 ft | 400 kts | 229° |
| 2026-05-06 10:23 | 63.96108 | -23.40232 | 15084 ft | 404 kts | 229° |
| 2026-05-06 10:23 | 63.94230 | -23.45063 | 15854 ft | 408 kts | 229° |
| 2026-05-06 10:24 | 63.92355 | -23.49888 | 16612 ft | 412 kts | 229° |
| 2026-05-06 10:24 | 63.90462 | -23.54755 | 17366 ft | 416 kts | 229° |
| 2026-05-06 10:24 | 63.88510 | -23.59771 | 17898 ft | 427 kts | 229° |
| 2026-05-06 10:24 | 63.86572 | -23.64729 | 18696 ft | 428 kts | 229° |
| 2026-05-06 10:25 | 63.84582 | -23.69810 | 19424 ft | 432 kts | 228° |
| 2026-05-06 10:25 | 63.82588 | -23.74893 | 20145 ft | 436 kts | 228° |
| 2026-05-06 10:25 | 63.80551 | -23.80072 | 20874 ft | 440 kts | 228° |
| 2026-05-06 10:25 | 63.78527 | -23.85204 | 21578 ft | 444 kts | 228° |
| 2026-05-06 10:26 | 63.76477 | -23.90395 | 22274 ft | 447 kts | 229° |
| 2026-05-06 10:26 | 63.74390 | -23.95670 | 22813 ft | 455 kts | 227° |
| 2026-05-06 10:26 | 63.72282 | -24.00979 | 23504 ft | 458 kts | 227° |
| 2026-05-06 10:26 | 63.70171 | -24.06267 | 24258 ft | 458 kts | 229° |
| 2026-05-06 10:27 | 63.68021 | -24.11666 | 24839 ft | 463 kts | 229° |
| 2026-05-06 10:27 | 63.65868 | -24.17051 | 25412 ft | 468 kts | 229° |
| 2026-05-06 10:27 | 63.63692 | -24.22480 | 25984 ft | 473 kts | 229° |
| 2026-05-06 10:27 | 63.61487 | -24.27968 | 26553 ft | 477 kts | 229° |
| 2026-05-06 10:28 | 63.59230 | -24.33569 | 27103 ft | 483 kts | 229° |
| 2026-05-06 10:28 | 63.56983 | -24.39133 | 27662 ft | 487 kts | 230° |
| 2026-05-06 10:28 | 63.54714 | -24.44736 | 28205 ft | 492 kts | 230° |
| 2026-05-06 10:28 | 63.52416 | -24.50399 | 28744 ft | 496 kts | 230° |
| 2026-05-06 10:29 | 63.50087 | -24.56090 | 29871 ft | 486 kts | 232° |
| 2026-05-06 10:29 | 63.48006 | -24.61921 | 30234 ft | 489 kts | 239° |
| 2026-05-06 10:29 | 63.46047 | -24.68143 | 30859 ft | 491 kts | 238° |
| 2026-05-06 10:29 | 63.44044 | -24.74374 | 31486 ft | 491 kts | 238° |
| 2026-05-06 10:30 | 63.42072 | -24.80472 | 32098 ft | 491 kts | 238° |
| 2026-05-06 10:30 | 63.40068 | -24.86641 | 32706 ft | 491 kts | 238° |
| 2026-05-06 10:30 | 63.38072 | -24.92763 | 33269 ft | 490 kts | 238° |
| 2026-05-06 10:30 | 63.36074 | -24.98868 | 33800 ft | 490 kts | 238° |
| 2026-05-06 10:31 | 63.34060 | -25.05006 | 34306 ft | 490 kts | 237° |
| 2026-05-06 10:31 | 63.32076 | -25.11038 | 34779 ft | 490 kts | 237° |
| 2026-05-06 10:31 | 63.30058 | -25.17154 | 35234 ft | 489 kts | 237° |
| 2026-05-06 10:31 | 63.28055 | -25.23208 | 35661 ft | 489 kts | 237° |
| 2026-05-06 10:32 | 63.26025 | -25.29326 | 35993 ft | 490 kts | 237° |
| 2026-05-06 10:32 | 63.24009 | -25.35391 | 35997 ft | 492 kts | 237° |
| 2026-05-06 10:32 | 63.19974 | -25.47466 | 35999 ft | 486 kts | 237° |
| 2026-05-06 10:33 | 63.15958 | -25.59428 | 36005 ft | 487 kts | 238° |
| 2026-05-06 10:33 | 63.11920 | -25.71392 | 36002 ft | 485 kts | 237° |
| 2026-05-06 10:34 | 63.07876 | -25.83311 | 36026 ft | 487 kts | 237° |
| 2026-05-06 10:34 | 63.03803 | -25.95254 | 36031 ft | 489 kts | 237° |
| 2026-05-06 10:35 | 62.99742 | -26.07094 | 36031 ft | 488 kts | 237° |
| 2026-05-06 10:35 | 62.95650 | -26.18967 | 36031 ft | 488 kts | 237° |
| 2026-05-06 10:36 | 62.91542 | -26.30823 | 36032 ft | 488 kts | 237° |
| 2026-05-06 10:36 | 62.86926 | -26.41735 | 36027 ft | 492 kts | 229° |
| 2026-05-06 10:37 | 62.82030 | -26.52069 | 36024 ft | 493 kts | 228° |
| 2026-05-06 10:37 | 62.77070 | -26.62391 | 36023 ft | 492 kts | 228° |
| 2026-05-06 10:38 | 62.72107 | -26.72643 | 36031 ft | 493 kts | 227° |
| 2026-05-06 10:38 | 62.67173 | -26.82777 | 36024 ft | 489 kts | 228° |
| 2026-05-06 10:39 | 62.62224 | -26.92901 | 36027 ft | 489 kts | 228° |
| 2026-05-06 10:39 | 62.57298 | -27.02926 | 36026 ft | 489 kts | 228° |
| 2026-05-06 10:40 | 62.52350 | -27.12947 | 36025 ft | 489 kts | 228° |
| 2026-05-06 10:40 | 62.47354 | -27.23016 | 36027 ft | 492 kts | 228° |
| 2026-05-06 10:41 | 62.42371 | -27.33007 | 36027 ft | 491 kts | 228° |
| 2026-05-06 10:41 | 62.37368 | -27.42995 | 36027 ft | 490 kts | 228° |
| 2026-05-06 10:42 | 62.32361 | -27.52946 | 36027 ft | 491 kts | 228° |
| 2026-05-06 10:42 | 62.27370 | -27.62813 | 36027 ft | 490 kts | 228° |
| 2026-05-06 10:43 | 62.22342 | -27.72707 | 36037 ft | 491 kts | 229° |
| 2026-05-06 10:44 | 62.14877 | -27.87305 | 36030 ft | 483 kts | 229° |
| 2026-05-06 10:44 | 62.09925 | -27.96945 | 36033 ft | 485 kts | 229° |
| 2026-05-06 10:45 | 62.04939 | -28.06601 | 36031 ft | 485 kts | 229° |
| 2026-05-06 10:45 | 61.99967 | -28.16184 | 36032 ft | 485 kts | 229° |
| 2026-05-06 10:46 | 61.94959 | -28.25792 | 36032 ft | 485 kts | 229° |
| 2026-05-06 10:46 | 61.89983 | -28.35299 | 36039 ft | 483 kts | 230° |
| 2026-05-06 10:47 | 61.85013 | -28.44738 | 36017 ft | 477 kts | 230° |
| 2026-05-06 10:47 | 61.80112 | -28.54015 | 36022 ft | 477 kts | 230° |
| 2026-05-06 10:48 | 61.75172 | -28.63322 | 36020 ft | 478 kts | 230° |
| 2026-05-06 10:48 | 61.70226 | -28.72597 | 36025 ft | 476 kts | 229° |
| 2026-05-06 10:49 | 61.65317 | -28.81762 | 36025 ft | 473 kts | 229° |
| 2026-05-06 10:49 | 61.60391 | -28.90924 | 36027 ft | 475 kts | 229° |
| 2026-05-06 10:50 | 61.55434 | -29.00095 | 36026 ft | 474 kts | 229° |
| 2026-05-06 10:50 | 61.50510 | -29.09170 | 36027 ft | 475 kts | 229° |
| 2026-05-06 10:51 | 61.45542 | -29.18282 | 36026 ft | 475 kts | 229° |
| 2026-05-06 10:51 | 61.40601 | -29.27307 | 36026 ft | 475 kts | 229° |
| 2026-05-06 10:52 | 61.35629 | -29.36351 | 36027 ft | 476 kts | 229° |
| 2026-05-06 10:52 | 61.30657 | -29.45352 | 36236 ft | 475 kts | 229° |
| 2026-05-06 10:53 | 61.25654 | -29.54375 | 36289 ft | 474 kts | 229° |
| 2026-05-06 10:53 | 61.20729 | -29.63203 | 36292 ft | 465 kts | 229° |
| 2026-05-06 10:54 | 61.15873 | -29.71885 | 36298 ft | 464 kts | 228° |
| 2026-05-06 10:54 | 61.10964 | -29.80624 | 36297 ft | 465 kts | 228° |
| 2026-05-06 10:55 | 61.06102 | -29.89238 | 36297 ft | 464 kts | 228° |
| 2026-05-06 10:55 | 61.01344 | -29.98093 | 36294 ft | 456 kts | 235° |
| 2026-05-06 10:56 | 60.98006 | -30.08811 | 36303 ft | 440 kts | 252° |
| 2026-05-06 10:56 | 60.95511 | -30.20316 | 36296 ft | 440 kts | 252° |
| 2026-05-06 10:57 | 60.92997 | -30.31697 | 36295 ft | 440 kts | 252° |
| 2026-05-06 10:57 | 60.90436 | -30.43201 | 36296 ft | 443 kts | 252° |
| 2026-05-06 10:58 | 60.87867 | -30.54653 | 36285 ft | 441 kts | 252° |
| 2026-05-06 10:58 | 60.85287 | -30.66097 | 36286 ft | 442 kts | 251° |
| 2026-05-06 10:59 | 60.82695 | -30.77531 | 36290 ft | 443 kts | 251° |
| 2026-05-06 10:59 | 60.80100 | -30.88922 | 36290 ft | 445 kts | 251° |
| 2026-05-06 11:00 | 60.77474 | -31.00374 | 36286 ft | 440 kts | 251° |
| 2026-05-06 11:00 | 60.74882 | -31.11630 | 36290 ft | 440 kts | 251° |
| 2026-05-06 11:01 | 60.72270 | -31.22918 | 36290 ft | 441 kts | 250° |
| 2026-05-06 11:01 | 60.69659 | -31.34131 | 36287 ft | 441 kts | 250° |
| 2026-05-06 11:02 | 60.66998 | -31.45500 | 36289 ft | 443 kts | 250° |
| 2026-05-06 11:02 | 60.64344 | -31.56783 | 36288 ft | 442 kts | 250° |
| 2026-05-06 11:03 | 60.61697 | -31.67977 | 36291 ft | 443 kts | 249° |
| 2026-05-06 11:03 | 60.59003 | -31.79308 | 36293 ft | 443 kts | 249° |
| 2026-05-06 11:04 | 60.56313 | -31.90573 | 36294 ft | 445 kts | 249° |
| 2026-05-06 11:04 | 60.53610 | -32.01822 | 36292 ft | 445 kts | 249° |
| 2026-05-06 11:05 | 60.50899 | -32.13052 | 36292 ft | 445 kts | 249° |
| 2026-05-06 11:05 | 60.48169 | -32.24300 | 36291 ft | 445 kts | 249° |
| 2026-05-06 11:06 | 60.45428 | -32.35545 | 36293 ft | 448 kts | 249° |
| 2026-05-06 11:06 | 60.42671 | -32.46783 | 36526 ft | 445 kts | 249° |
| 2026-05-06 11:07 | 60.39904 | -32.58013 | 36528 ft | 448 kts | 249° |
| 2026-05-06 11:07 | 60.37128 | -32.69218 | 36532 ft | 446 kts | 248° |
| 2026-05-06 11:08 | 60.34349 | -32.80385 | 36533 ft | 447 kts | 248° |
| 2026-05-06 11:08 | 60.31565 | -32.91508 | 36532 ft | 447 kts | 248° |
| 2026-05-06 11:09 | 60.28758 | -33.02670 | 36532 ft | 447 kts | 248° |
| 2026-05-06 11:09 | 60.25946 | -33.13795 | 36531 ft | 447 kts | 248° |
| 2026-05-06 11:10 | 60.23128 | -33.24897 | 36524 ft | 447 kts | 248° |
| 2026-05-06 11:10 | 60.20264 | -33.36114 | 36533 ft | 452 kts | 247° |
| 2026-05-06 11:11 | 60.17386 | -33.47324 | 36530 ft | 452 kts | 247° |
| 2026-05-06 11:11 | 60.14505 | -33.58498 | 36530 ft | 451 kts | 247° |
| 2026-05-06 11:12 | 60.11626 | -33.69603 | 36534 ft | 452 kts | 246° |
| 2026-05-06 11:12 | 60.08713 | -33.80786 | 36534 ft | 452 kts | 246° |
| 2026-05-06 11:13 | 60.05801 | -33.91911 | 36535 ft | 452 kts | 246° |
| 2026-05-06 11:13 | 60.02880 | -34.03012 | 36532 ft | 451 kts | 246° |
| 2026-05-06 11:14 | 59.99961 | -34.14053 | 36533 ft | 451 kts | 246° |
| 2026-05-06 11:14 | 59.97033 | -34.25077 | 36533 ft | 451 kts | 246° |
| 2026-05-06 11:15 | 59.94087 | -34.36109 | 36532 ft | 451 kts | 246° |
| 2026-05-06 11:15 | 59.91134 | -34.47116 | 36532 ft | 451 kts | 246° |
| 2026-05-06 11:16 | 59.88181 | -34.58065 | 36525 ft | 451 kts | 246° |
| 2026-05-06 11:16 | 59.85213 | -34.69021 | 36529 ft | 451 kts | 246° |
| 2026-05-06 11:17 | 59.82228 | -34.79987 | 36529 ft | 452 kts | 246° |
| 2026-05-06 11:17 | 59.79229 | -34.90948 | 36529 ft | 451 kts | 246° |
| 2026-05-06 11:18 | 59.76242 | -35.01815 | 36529 ft | 452 kts | 246° |
| 2026-05-06 11:18 | 59.73223 | -35.12746 | 36528 ft | 452 kts | 246° |
| 2026-05-06 11:19 | 59.70213 | -35.23599 | 36523 ft | 452 kts | 245° |
| 2026-05-06 11:19 | 59.67166 | -35.34523 | 36530 ft | 457 kts | 245° |
| 2026-05-06 11:19 | 59.65632 | -35.40001 | 36403 ft | 459 kts | 245° |
| 2026-05-06 11:20 | 59.64089 | -35.45496 | 36278 ft | 453 kts | 245° |
| 2026-05-06 11:20 | 59.61050 | -35.56289 | 36293 ft | 453 kts | 245° |
| 2026-05-06 11:21 | 59.57971 | -35.67175 | 36291 ft | 455 kts | 244° |
| 2026-05-06 11:21 | 59.54880 | -35.78050 | 36293 ft | 454 kts | 244° |
| 2026-05-06 11:22 | 59.51796 | -35.88848 | 36293 ft | 454 kts | 244° |
| 2026-05-06 11:22 | 59.48694 | -35.99661 | 36292 ft | 454 kts | 244° |
| 2026-05-06 11:23 | 59.45596 | -36.10407 | 36292 ft | 454 kts | 244° |
| 2026-05-06 11:23 | 59.42454 | -36.21252 | 36292 ft | 454 kts | 244° |
| 2026-05-06 11:24 | 59.39323 | -36.32011 | 36292 ft | 454 kts | 244° |
| 2026-05-06 11:24 | 59.36195 | -36.42712 | 36292 ft | 454 kts | 244° |
| 2026-05-06 11:25 | 59.33041 | -36.53447 | 36292 ft | 454 kts | 244° |
| 2026-05-06 11:25 | 59.29885 | -36.64143 | 36291 ft | 454 kts | 244° |
| 2026-05-06 11:26 | 59.26722 | -36.74813 | 36295 ft | 455 kts | 243° |
| 2026-05-06 11:26 | 59.23554 | -36.85449 | 36294 ft | 455 kts | 243° |
| 2026-05-06 11:27 | 59.20377 | -36.96067 | 36294 ft | 455 kts | 243° |
| 2026-05-06 11:27 | 59.17165 | -37.06754 | 36294 ft | 455 kts | 243° |
| 2026-05-06 11:28 | 59.13977 | -37.17323 | 36295 ft | 454 kts | 242° |
| 2026-05-06 11:28 | 59.10782 | -37.27848 | 36293 ft | 452 kts | 242° |
| 2026-05-06 11:29 | 59.07570 | -37.38387 | 36293 ft | 453 kts | 242° |
| 2026-05-06 11:29 | 59.04380 | -37.48806 | 36292 ft | 453 kts | 242° |
| 2026-05-06 11:30 | 59.01159 | -37.59281 | 36292 ft | 453 kts | 242° |
| 2026-05-06 11:30 | 58.97932 | -37.69728 | 36295 ft | 453 kts | 241° |
| 2026-05-06 11:31 | 58.94692 | -37.80173 | 36294 ft | 453 kts | 241° |
| 2026-05-06 11:31 | 58.91433 | -37.90630 | 36294 ft | 453 kts | 241° |
| 2026-05-06 11:32 | 58.88176 | -38.01034 | 36291 ft | 453 kts | 241° |
| 2026-05-06 11:32 | 58.84920 | -38.11389 | 36291 ft | 453 kts | 241° |
| 2026-05-06 11:33 | 58.81646 | -38.21757 | 36293 ft | 453 kts | 241° |
| 2026-05-06 11:33 | 58.78361 | -38.32113 | 36289 ft | 452 kts | 241° |
| 2026-05-06 11:34 | 58.75086 | -38.42391 | 36291 ft | 452 kts | 241° |
| 2026-05-06 11:34 | 58.71785 | -38.52708 | 36290 ft | 452 kts | 241° |
| 2026-05-06 11:35 | 58.68491 | -38.62956 | 36290 ft | 452 kts | 241° |
| 2026-05-06 11:35 | 58.65188 | -38.73187 | 36293 ft | 452 kts | 240° |
| 2026-05-06 11:36 | 58.61869 | -38.83425 | 36292 ft | 452 kts | 240° |
| 2026-05-06 11:36 | 58.58566 | -38.93569 | 36292 ft | 452 kts | 240° |
| 2026-05-06 11:37 | 58.55226 | -39.03789 | 36292 ft | 453 kts | 239° |
| 2026-05-06 11:37 | 58.51856 | -39.14043 | 36292 ft | 454 kts | 239° |
| 2026-05-06 11:38 | 58.48508 | -39.24188 | 36292 ft | 453 kts | 239° |
| 2026-05-06 11:38 | 58.45147 | -39.34335 | 36292 ft | 454 kts | 239° |
| 2026-05-06 11:39 | 58.41760 | -39.44512 | 36291 ft | 453 kts | 239° |
| 2026-05-06 11:39 | 58.38389 | -39.54600 | 36291 ft | 454 kts | 239° |
| 2026-05-06 11:40 | 58.34989 | -39.64730 | 36290 ft | 453 kts | 239° |
| 2026-05-06 11:40 | 58.31597 | -39.74795 | 36293 ft | 452 kts | 238° |
| 2026-05-06 11:41 | 58.28200 | -39.84832 | 36293 ft | 453 kts | 238° |
| 2026-05-06 11:41 | 58.24776 | -39.94905 | 36293 ft | 452 kts | 238° |
| 2026-05-06 11:42 | 58.21381 | -40.04850 | 36293 ft | 453 kts | 238° |
| 2026-05-06 11:42 | 58.17942 | -40.14884 | 36292 ft | 453 kts | 238° |
| 2026-05-06 11:43 | 58.14518 | -40.24831 | 36292 ft | 453 kts | 238° |
| 2026-05-06 11:43 | 58.11087 | -40.34756 | 36292 ft | 453 kts | 238° |
| 2026-05-06 11:44 | 58.05911 | -40.49655 | 36292 ft | 453 kts | 238° |
| 2026-05-06 11:44 | 58.02433 | -40.59616 | 36314 ft | 464 kts | 238° |
| 2026-05-06 11:45 | 57.98813 | -40.69935 | 36303 ft | 481 kts | 237° |
| 2026-05-06 11:45 | 57.95063 | -40.80576 | 36301 ft | 496 kts | 237° |
| 2026-05-06 11:46 | 57.91221 | -40.91428 | 36285 ft | 496 kts | 237° |
| 2026-05-06 11:46 | 57.87386 | -41.02218 | 36293 ft | 503 kts | 237° |
| 2026-05-06 11:47 | 57.83496 | -41.13107 | 36289 ft | 502 kts | 237° |
| 2026-05-06 11:47 | 57.79597 | -41.23975 | 36291 ft | 502 kts | 237° |
| 2026-05-06 11:48 | 57.75709 | -41.34764 | 36293 ft | 503 kts | 237° |
| 2026-05-06 11:48 | 57.71790 | -41.45595 | 36288 ft | 504 kts | 236° |
| 2026-05-06 11:49 | 57.67830 | -41.56480 | 36295 ft | 506 kts | 236° |
| 2026-05-06 11:49 | 57.63870 | -41.67317 | 36291 ft | 506 kts | 236° |
| 2026-05-06 11:50 | 57.59912 | -41.78102 | 36291 ft | 506 kts | 236° |
| 2026-05-06 11:50 | 57.55936 | -41.88891 | 36289 ft | 503 kts | 235° |
| 2026-05-06 11:51 | 57.52005 | -41.99504 | 36292 ft | 502 kts | 235° |
| 2026-05-06 11:51 | 57.48009 | -42.10247 | 36293 ft | 503 kts | 235° |
| 2026-05-06 11:52 | 57.44054 | -42.20832 | 36280 ft | 501 kts | 235° |
| 2026-05-06 11:52 | 57.40049 | -42.31508 | 36297 ft | 505 kts | 234° |
| 2026-05-06 11:53 | 57.36064 | -42.42084 | 36293 ft | 501 kts | 234° |
| 2026-05-06 11:53 | 57.32063 | -42.52649 | 36296 ft | 503 kts | 234° |
| 2026-05-06 11:54 | 57.28062 | -42.63171 | 36295 ft | 503 kts | 234° |
| 2026-05-06 11:54 | 57.24026 | -42.73741 | 36298 ft | 502 kts | 234° |
| 2026-05-06 11:55 | 57.20071 | -42.84044 | 36285 ft | 483 kts | 234° |
| 2026-05-06 11:55 | 57.16222 | -42.94043 | 36293 ft | 478 kts | 234° |
| 2026-05-06 11:56 | 57.12389 | -43.03956 | 36293 ft | 480 kts | 234° |
| 2026-05-06 11:56 | 57.08518 | -43.13922 | 36293 ft | 479 kts | 234° |
| 2026-05-06 11:57 | 57.04639 | -43.23869 | 36293 ft | 479 kts | 234° |
| 2026-05-06 11:57 | 57.00770 | -43.33746 | 36292 ft | 478 kts | 235° |
| 2026-05-06 11:58 | 56.96916 | -43.43550 | 36289 ft | 477 kts | 235° |
| 2026-05-06 11:58 | 56.93018 | -43.53425 | 36295 ft | 481 kts | 235° |
| 2026-05-06 11:59 | 56.89099 | -43.63313 | 36292 ft | 480 kts | 235° |
| 2026-05-06 11:59 | 56.85167 | -43.73192 | 36292 ft | 480 kts | 234° |
| 2026-05-06 12:00 | 56.81233 | -43.83028 | 36291 ft | 480 kts | 235° |
| 2026-05-06 12:00 | 56.77303 | -43.92826 | 36292 ft | 480 kts | 235° |
| 2026-05-06 12:01 | 56.73367 | -44.02596 | 36292 ft | 480 kts | 235° |
| 2026-05-06 12:01 | 56.69442 | -44.12291 | 36287 ft | 476 kts | 236° |
| 2026-05-06 12:02 | 56.65544 | -44.21895 | 36291 ft | 472 kts | 236° |
| 2026-05-06 12:02 | 56.61638 | -44.31477 | 36292 ft | 474 kts | 236° |
| 2026-05-06 12:03 | 56.57751 | -44.40969 | 36281 ft | 465 kts | 236° |
| 2026-05-06 12:03 | 56.53918 | -44.50297 | 36291 ft | 459 kts | 236° |
| 2026-05-06 12:04 | 56.50100 | -44.59554 | 36291 ft | 462 kts | 236° |
| 2026-05-06 12:04 | 56.46265 | -44.68815 | 36295 ft | 462 kts | 236° |
| 2026-05-06 12:05 | 56.42407 | -44.78096 | 36296 ft | 462 kts | 236° |
| 2026-05-06 12:05 | 56.38590 | -44.87240 | 36289 ft | 454 kts | 236° |
| 2026-05-06 12:06 | 56.34795 | -44.96303 | 36294 ft | 454 kts | 236° |
| 2026-05-06 12:06 | 56.30980 | -45.05378 | 36293 ft | 455 kts | 236° |
| 2026-05-06 12:07 | 56.27165 | -45.14421 | 36292 ft | 454 kts | 236° |
| 2026-05-06 12:07 | 56.23360 | -45.23404 | 36292 ft | 454 kts | 236° |
| 2026-05-06 12:08 | 56.19508 | -45.32436 | 36305 ft | 462 kts | 240° |
| 2026-05-06 12:08 | 56.15528 | -45.41795 | 36299 ft | 476 kts | 240° |
| 2026-05-06 12:09 | 56.11516 | -45.51156 | 36293 ft | 473 kts | 240° |
| 2026-05-06 12:09 | 56.07539 | -45.60405 | 36295 ft | 473 kts | 240° |
| 2026-05-06 12:10 | 56.03511 | -45.69736 | 36301 ft | 474 kts | 239° |
| 2026-05-06 12:10 | 55.99475 | -45.79051 | 36299 ft | 474 kts | 239° |
| 2026-05-06 12:11 | 55.95470 | -45.88242 | 36299 ft | 469 kts | 239° |
| 2026-05-06 12:11 | 55.91489 | -45.97369 | 36299 ft | 466 kts | 239° |
| 2026-05-06 12:12 | 55.87522 | -46.06427 | 36287 ft | 467 kts | 239° |
| 2026-05-06 12:12 | 55.83521 | -46.15522 | 36287 ft | 467 kts | 239° |
| 2026-05-06 12:13 | 55.79534 | -46.24553 | 36287 ft | 467 kts | 239° |
| 2026-05-06 12:13 | 55.75512 | -46.33624 | 36285 ft | 465 kts | 240° |
| 2026-05-06 12:14 | 55.71540 | -46.42557 | 36295 ft | 461 kts | 240° |
| 2026-05-06 12:14 | 55.67587 | -46.51408 | 36284 ft | 455 kts | 240° |
| 2026-05-06 12:15 | 55.63681 | -46.60130 | 36287 ft | 456 kts | 240° |
| 2026-05-06 12:15 | 55.59734 | -46.68910 | 36294 ft | 457 kts | 239° |
| 2026-05-06 12:16 | 55.55769 | -46.77694 | 36293 ft | 458 kts | 239° |
| 2026-05-06 12:16 | 55.51807 | -46.86444 | 36294 ft | 459 kts | 239° |
| 2026-05-06 12:17 | 55.47800 | -46.95259 | 36293 ft | 462 kts | 239° |
| 2026-05-06 12:17 | 55.43819 | -47.03997 | 36293 ft | 459 kts | 239° |
| 2026-05-06 12:18 | 55.39815 | -47.12732 | 36292 ft | 457 kts | 239° |
| 2026-05-06 12:18 | 55.35825 | -47.21415 | 36293 ft | 458 kts | 239° |
| 2026-05-06 12:19 | 55.31837 | -47.30067 | 36309 ft | 456 kts | 238° |
| 2026-05-06 12:19 | 55.27896 | -47.38571 | 36285 ft | 443 kts | 239° |
| 2026-05-06 12:20 | 55.24025 | -47.46917 | 36301 ft | 445 kts | 238° |
| 2026-05-06 12:20 | 55.20138 | -47.55254 | 36283 ft | 435 kts | 238° |
| 2026-05-06 12:21 | 55.16351 | -47.63361 | 36291 ft | 435 kts | 238° |
| 2026-05-06 12:21 | 55.12504 | -47.71563 | 36298 ft | 437 kts | 237° |
| 2026-05-06 12:22 | 55.08658 | -47.79737 | 36299 ft | 436 kts | 237° |
| 2026-05-06 12:22 | 55.04832 | -47.87837 | 36294 ft | 433 kts | 237° |
| 2026-05-06 12:23 | 55.00997 | -47.95932 | 36296 ft | 433 kts | 237° |
| 2026-05-06 12:23 | 54.97168 | -48.03989 | 36295 ft | 433 kts | 237° |
| 2026-05-06 12:24 | 54.93324 | -48.12053 | 36258 ft | 434 kts | 236° |
| 2026-05-06 12:24 | 54.91387 | -48.16111 | 35799 ft | 434 kts | 237° |
| 2026-05-06 12:24 | 54.89493 | -48.20047 | 35812 ft | 423 kts | 237° |
| 2026-05-06 12:25 | 54.85717 | -48.27924 | 35817 ft | 428 kts | 236° |
| 2026-05-06 12:25 | 54.81934 | -48.35775 | 35804 ft | 417 kts | 236° |
| 2026-05-06 12:26 | 54.78242 | -48.43418 | 35814 ft | 416 kts | 236° |
| 2026-05-06 12:26 | 54.74520 | -48.51099 | 35811 ft | 417 kts | 236° |
| 2026-05-06 12:27 | 54.70804 | -48.58745 | 35811 ft | 417 kts | 236° |
| 2026-05-06 12:27 | 54.67061 | -48.66419 | 35814 ft | 417 kts | 235° |
| 2026-05-06 12:28 | 54.63329 | -48.74049 | 35819 ft | 418 kts | 235° |
| 2026-05-06 12:28 | 54.59583 | -48.81683 | 35815 ft | 418 kts | 234° |
| 2026-05-06 12:29 | 54.55816 | -48.89336 | 35819 ft | 422 kts | 234° |
| 2026-05-06 12:29 | 54.52037 | -48.96986 | 35816 ft | 421 kts | 234° |
| 2026-05-06 12:30 | 54.48241 | -49.04649 | 35816 ft | 421 kts | 234° |
| 2026-05-06 12:30 | 54.44453 | -49.12272 | 35816 ft | 421 kts | 234° |
| 2026-05-06 12:31 | 54.40638 | -49.19925 | 35815 ft | 421 kts | 234° |
| 2026-05-06 12:31 | 54.36846 | -49.27512 | 35811 ft | 424 kts | 234° |
| 2026-05-06 12:32 | 54.32959 | -49.35263 | 35815 ft | 428 kts | 234° |
| 2026-05-06 12:32 | 54.29104 | -49.42921 | 35813 ft | 427 kts | 234° |
| 2026-05-06 12:33 | 54.25219 | -49.50617 | 35813 ft | 427 kts | 234° |
| 2026-05-06 12:33 | 54.21362 | -49.58235 | 35810 ft | 425 kts | 234° |
| 2026-05-06 12:34 | 54.17495 | -49.65849 | 35814 ft | 425 kts | 233° |
| 2026-05-06 12:34 | 54.13621 | -49.73453 | 35819 ft | 426 kts | 233° |
| 2026-05-06 12:35 | 54.09726 | -49.81074 | 35819 ft | 427 kts | 233° |
| 2026-05-06 12:35 | 54.05821 | -49.88691 | 35818 ft | 428 kts | 233° |
| 2026-05-06 12:36 | 54.01920 | -49.96276 | 35818 ft | 427 kts | 233° |
| 2026-05-06 12:36 | 53.98299 | -50.04149 | 35817 ft | 421 kts | 244° |
| 2026-05-06 12:37 | 53.96263 | -50.13346 | 35823 ft | 416 kts | 256° |
| 2026-05-06 12:37 | 53.94369 | -50.22651 | 35815 ft | 417 kts | 252° |
| 2026-05-06 12:38 | 53.92257 | -50.31777 | 35814 ft | 418 kts | 251° |
| 2026-05-06 12:38 | 53.90073 | -50.40846 | 35834 ft | 417 kts | 250° |
| 2026-05-06 12:39 | 53.88579 | -50.46967 | 35830 ft | 416 kts | 250° |
| 2026-05-06 12:39 | 53.86939 | -50.53648 | 35831 ft | 416 kts | 250° |
| 2026-05-06 12:40 | 53.85052 | -50.61297 | 35830 ft | 416 kts | 250° |
| 2026-05-06 12:40 | 53.83395 | -50.67991 | 35837 ft | 416 kts | 250° |
| 2026-05-06 12:41 | 53.81340 | -50.76263 | 35837 ft | 416 kts | 250° |
| 2026-05-06 12:41 | 53.79139 | -50.85090 | 35836 ft | 416 kts | 250° |
| 2026-05-06 12:42 | 53.76977 | -50.93720 | 35835 ft | 416 kts | 250° |
| 2026-05-06 12:42 | 53.74738 | -51.02626 | 35835 ft | 416 kts | 250° |
| 2026-05-06 12:43 | 53.72498 | -51.11493 | 35834 ft | 419 kts | 250° |
| 2026-05-06 12:43 | 53.70375 | -51.19877 | 35832 ft | 418 kts | 250° |
| 2026-05-06 12:44 | 53.68076 | -51.28913 | 35832 ft | 418 kts | 250° |
| 2026-05-06 12:44 | 53.65776 | -51.37915 | 35831 ft | 418 kts | 250° |
| 2026-05-06 12:45 | 53.63483 | -51.46856 | 35831 ft | 418 kts | 250° |
| 2026-05-06 12:46 | 53.60032 | -51.60245 | 35830 ft | 418 kts | 250° |
| 2026-05-06 12:46 | 53.57706 | -51.69233 | 35840 ft | 418 kts | 250° |
| 2026-05-06 12:47 | 53.55380 | -51.78171 | 35837 ft | 417 kts | 250° |
| 2026-05-06 12:47 | 53.53052 | -51.87087 | 35836 ft | 417 kts | 250° |
| 2026-05-06 12:48 | 53.50720 | -51.95983 | 35835 ft | 417 kts | 250° |
| 2026-05-06 12:48 | 53.48362 | -52.04945 | 35835 ft | 417 kts | 250° |
| 2026-05-06 12:49 | 53.46023 | -52.13798 | 35834 ft | 417 kts | 250° |
| 2026-05-06 12:49 | 53.43657 | -52.22720 | 35833 ft | 417 kts | 250° |
| 2026-05-06 12:50 | 53.41295 | -52.31587 | 35833 ft | 417 kts | 250° |
| 2026-05-06 12:50 | 53.38914 | -52.40494 | 35832 ft | 417 kts | 250° |
| 2026-05-06 12:51 | 53.36527 | -52.49391 | 35831 ft | 417 kts | 250° |
| 2026-05-06 12:51 | 53.34153 | -52.58204 | 35830 ft | 417 kts | 250° |
| 2026-05-06 12:52 | 53.31767 | -52.67024 | 35835 ft | 417 kts | 249° |
| 2026-05-06 12:52 | 53.29365 | -52.75876 | 35837 ft | 418 kts | 249° |
| 2026-05-06 12:53 | 53.26975 | -52.84646 | 35837 ft | 417 kts | 249° |
| 2026-05-06 12:53 | 53.24569 | -52.93440 | 35836 ft | 417 kts | 249° |
| 2026-05-06 12:54 | 53.22162 | -53.02204 | 35835 ft | 417 kts | 248° |
| 2026-05-06 12:54 | 53.19798 | -53.10788 | 35841 ft | 425 kts | 248° |
| 2026-05-06 12:55 | 53.17267 | -53.19933 | 35833 ft | 426 kts | 248° |
| 2026-05-06 12:55 | 53.14804 | -53.28798 | 35834 ft | 425 kts | 248° |
| 2026-05-06 12:56 | 53.12312 | -53.37732 | 35833 ft | 426 kts | 248° |
| 2026-05-06 12:56 | 53.09811 | -53.46670 | 35832 ft | 426 kts | 248° |
| 2026-05-06 12:57 | 53.07296 | -53.55619 | 35832 ft | 426 kts | 248° |
| 2026-05-06 12:57 | 53.04770 | -53.64576 | 35831 ft | 426 kts | 248° |
| 2026-05-06 12:58 | 53.02274 | -53.73389 | 35838 ft | 426 kts | 248° |
| 2026-05-06 12:58 | 52.99755 | -53.82250 | 35837 ft | 426 kts | 248° |
| 2026-05-06 12:59 | 52.97223 | -53.91128 | 35837 ft | 426 kts | 248° |
| 2026-05-06 12:59 | 52.94670 | -54.00044 | 35836 ft | 426 kts | 248° |
| 2026-05-06 13:00 | 52.92132 | -54.08873 | 35835 ft | 426 kts | 248° |
| 2026-05-06 13:00 | 52.89570 | -54.17752 | 35834 ft | 426 kts | 248° |
| 2026-05-06 13:01 | 52.87006 | -54.26604 | 35833 ft | 426 kts | 248° |
| 2026-05-06 13:01 | 52.84449 | -54.35399 | 35832 ft | 426 kts | 248° |
| 2026-05-06 13:02 | 52.81870 | -54.44239 | 35831 ft | 426 kts | 248° |
| 2026-05-06 13:02 | 52.79307 | -54.52989 | 35831 ft | 426 kts | 248° |
| 2026-05-06 13:03 | 52.76732 | -54.61749 | 35830 ft | 426 kts | 248° |
| 2026-05-06 13:03 | 52.74168 | -54.70440 | 35837 ft | 426 kts | 247° |
| 2026-05-06 13:04 | 52.71712 | -54.78734 | 35836 ft | 426 kts | 247° |
| 2026-05-06 13:04 | 52.69070 | -54.87626 | 35836 ft | 426 kts | 247° |
| 2026-05-06 13:05 | 52.66501 | -54.96240 | 35835 ft | 426 kts | 247° |
| 2026-05-06 13:05 | 52.63916 | -55.04871 | 35828 ft | 419 kts | 247° |
| 2026-05-06 13:06 | 52.61381 | -55.13311 | 35835 ft | 418 kts | 247° |
| 2026-05-06 13:06 | 52.58849 | -55.21714 | 35833 ft | 419 kts | 247° |
| 2026-05-06 13:07 | 52.56320 | -55.30074 | 35832 ft | 418 kts | 247° |
| 2026-05-06 13:07 | 52.53804 | -55.38360 | 35832 ft | 418 kts | 247° |
| 2026-05-06 13:08 | 52.51281 | -55.46643 | 35831 ft | 418 kts | 247° |
| 2026-05-06 13:08 | 52.48771 | -55.54855 | 35831 ft | 417 kts | 247° |
| 2026-05-06 13:09 | 52.46254 | -55.63063 | 35830 ft | 418 kts | 247° |
| 2026-05-06 13:09 | 52.43754 | -55.71186 | 35838 ft | 418 kts | 246° |
| 2026-05-06 13:10 | 52.41136 | -55.79658 | 35836 ft | 418 kts | 246° |
| 2026-05-06 13:10 | 52.37891 | -55.87602 | 35838 ft | 423 kts | 238° |
| 2026-05-06 13:11 | 52.34384 | -55.95267 | 35835 ft | 423 kts | 237° |
| 2026-05-06 13:11 | 52.30804 | -56.02941 | 35835 ft | 423 kts | 237° |
| 2026-05-06 13:12 | 52.27249 | -56.10502 | 35834 ft | 423 kts | 237° |
| 2026-05-06 13:12 | 52.23642 | -56.18140 | 35834 ft | 423 kts | 237° |
| 2026-05-06 13:13 | 52.20077 | -56.25664 | 35833 ft | 423 kts | 237° |
| 2026-05-06 13:13 | 52.16471 | -56.33252 | 35833 ft | 423 kts | 237° |
| 2026-05-06 13:14 | 52.12861 | -56.40825 | 35832 ft | 423 kts | 237° |
| 2026-05-06 13:14 | 52.09329 | -56.48214 | 35831 ft | 423 kts | 237° |
| 2026-05-06 13:15 | 52.05709 | -56.55767 | 35830 ft | 425 kts | 236° |
| 2026-05-06 13:15 | 52.02046 | -56.63383 | 35830 ft | 430 kts | 236° |
| 2026-05-06 13:16 | 51.98372 | -56.70997 | 35838 ft | 428 kts | 236° |
| 2026-05-06 13:16 | 51.94715 | -56.78555 | 35837 ft | 428 kts | 236° |
| 2026-05-06 13:17 | 51.91055 | -56.86098 | 35837 ft | 428 kts | 236° |
| 2026-05-06 13:17 | 51.87355 | -56.93701 | 35835 ft | 428 kts | 236° |
| 2026-05-06 13:18 | 51.83680 | -57.01232 | 35834 ft | 428 kts | 236° |
| 2026-05-06 13:18 | 51.79990 | -57.08770 | 35834 ft | 428 kts | 236° |
| 2026-05-06 13:19 | 51.76317 | -57.16250 | 35833 ft | 428 kts | 236° |
| 2026-05-06 13:19 | 51.72623 | -57.23752 | 35833 ft | 428 kts | 236° |
| 2026-05-06 13:20 | 51.68898 | -57.31296 | 35833 ft | 428 kts | 234° |
| 2026-05-06 13:20 | 51.67099 | -57.34958 | 35842 ft | 417 kts | 232° |
| 2026-05-06 13:20 | 51.65319 | -57.38532 | 35815 ft | 400 kts | 233° |
| 2026-05-06 13:21 | 51.61879 | -57.45452 | 35835 ft | 398 kts | 233° |
| 2026-05-06 13:21 | 51.58409 | -57.52417 | 35830 ft | 400 kts | 233° |
| 2026-05-06 13:22 | 51.54952 | -57.59340 | 35830 ft | 399 kts | 233° |
| 2026-05-06 13:22 | 51.51467 | -57.66300 | 35920 ft | 403 kts | 232° |
| 2026-05-06 13:23 | 51.47969 | -57.73268 | 35918 ft | 402 kts | 232° |
| 2026-05-06 13:23 | 51.44454 | -57.80255 | 35921 ft | 401 kts | 231° |
| 2026-05-06 13:24 | 51.40970 | -57.87154 | 35917 ft | 398 kts | 231° |
| 2026-05-06 13:24 | 51.37502 | -57.94005 | 35917 ft | 399 kts | 231° |
| 2026-05-06 13:25 | 51.34007 | -58.00890 | 35916 ft | 399 kts | 231° |
| 2026-05-06 13:25 | 51.30527 | -58.07730 | 35915 ft | 399 kts | 231° |
| 2026-05-06 13:26 | 51.27029 | -58.14585 | 35914 ft | 399 kts | 231° |
| 2026-05-06 13:26 | 51.23525 | -58.21436 | 35913 ft | 399 kts | 231° |
| 2026-05-06 13:27 | 51.20011 | -58.28287 | 35924 ft | 406 kts | 231° |
| 2026-05-06 13:27 | 51.16427 | -58.35255 | 35908 ft | 403 kts | 231° |
| 2026-05-06 13:28 | 51.12883 | -58.42127 | 35911 ft | 403 kts | 231° |
| 2026-05-06 13:28 | 51.09349 | -58.48963 | 35909 ft | 403 kts | 231° |
| 2026-05-06 13:29 | 51.05796 | -58.55816 | 35909 ft | 403 kts | 231° |
| 2026-05-06 13:29 | 51.02227 | -58.62680 | 35908 ft | 403 kts | 231° |
| 2026-05-06 13:30 | 50.98681 | -58.69484 | 35999 ft | 402 kts | 231° |
| 2026-05-06 13:30 | 50.95092 | -58.76352 | 35996 ft | 402 kts | 231° |
| 2026-05-06 13:31 | 50.91547 | -58.83117 | 35993 ft | 399 kts | 231° |
| 2026-05-06 13:31 | 50.88010 | -58.89848 | 36005 ft | 398 kts | 231° |
| 2026-05-06 13:32 | 50.84474 | -58.96563 | 36003 ft | 398 kts | 231° |
| 2026-05-06 13:32 | 50.80933 | -59.03268 | 36002 ft | 398 kts | 231° |
| 2026-05-06 13:33 | 50.77390 | -59.09958 | 36001 ft | 398 kts | 231° |
| 2026-05-06 13:33 | 50.73846 | -59.16636 | 36001 ft | 398 kts | 231° |
| 2026-05-06 13:34 | 50.70297 | -59.23304 | 36005 ft | 404 kts | 231° |
| 2026-05-06 13:34 | 50.66658 | -59.30128 | 35998 ft | 406 kts | 230° |
| 2026-05-06 13:35 | 50.63053 | -59.36862 | 35998 ft | 404 kts | 230° |
| 2026-05-06 13:35 | 50.59415 | -59.43642 | 35997 ft | 405 kts | 230° |
| 2026-05-06 13:36 | 50.55817 | -59.50332 | 35996 ft | 405 kts | 230° |
| 2026-05-06 13:36 | 50.53589 | -59.54465 | 35996 ft | 405 kts | 230° |
| 2026-05-06 13:37 | 50.49946 | -59.61211 | 35995 ft | 405 kts | 230° |
| 2026-05-06 13:37 | 50.46309 | -59.67926 | 35997 ft | 404 kts | 230° |
| 2026-05-06 13:38 | 50.42671 | -59.74628 | 36002 ft | 406 kts | 230° |
| 2026-05-06 13:38 | 50.39007 | -59.81355 | 36002 ft | 405 kts | 230° |
| 2026-05-06 13:39 | 50.35395 | -59.87976 | 35999 ft | 401 kts | 230° |
| 2026-05-06 13:39 | 50.31757 | -59.94627 | 35999 ft | 402 kts | 230° |
| 2026-05-06 13:40 | 50.28125 | -60.01247 | 35997 ft | 402 kts | 230° |
| 2026-05-06 13:40 | 50.24504 | -60.07832 | 35997 ft | 402 kts | 230° |
| 2026-05-06 13:41 | 50.20857 | -60.14446 | 35998 ft | 405 kts | 230° |
| 2026-05-06 13:41 | 50.17181 | -60.21095 | 35994 ft | 404 kts | 230° |
| 2026-05-06 13:42 | 50.13520 | -60.27702 | 35994 ft | 404 kts | 230° |
| 2026-05-06 13:42 | 50.09860 | -60.34291 | 35993 ft | 404 kts | 230° |
| 2026-05-06 13:43 | 50.06168 | -60.40918 | 35992 ft | 404 kts | 230° |
| 2026-05-06 13:43 | 50.02504 | -60.47479 | 35991 ft | 404 kts | 230° |
| 2026-05-06 13:44 | 49.98814 | -60.54069 | 35991 ft | 404 kts | 230° |
| 2026-05-06 13:44 | 49.95136 | -60.60622 | 35990 ft | 404 kts | 230° |
| 2026-05-06 13:45 | 49.91449 | -60.67174 | 35870 ft | 404 kts | 229° |
| 2026-05-06 13:45 | 49.85944 | -60.76926 | 35887 ft | 404 kts | 229° |
| 2026-05-06 13:46 | 49.82236 | -60.83471 | 35884 ft | 401 kts | 230° |
| 2026-05-06 13:46 | 49.78597 | -60.89883 | 35884 ft | 398 kts | 230° |
| 2026-05-06 13:47 | 49.74925 | -60.96336 | 35884 ft | 399 kts | 230° |
| 2026-05-06 13:47 | 49.71257 | -61.02767 | 35888 ft | 405 kts | 229° |
| 2026-05-06 13:48 | 49.67520 | -61.09299 | 35881 ft | 407 kts | 229° |
| 2026-05-06 13:48 | 49.63777 | -61.15827 | 35881 ft | 406 kts | 229° |
| 2026-05-06 13:49 | 49.60053 | -61.22305 | 35880 ft | 406 kts | 229° |
| 2026-05-06 13:49 | 49.56302 | -61.28816 | 35881 ft | 405 kts | 229° |
| 2026-05-06 13:50 | 49.52583 | -61.35252 | 35879 ft | 404 kts | 229° |
| 2026-05-06 13:50 | 49.48848 | -61.41700 | 35877 ft | 404 kts | 229° |
| 2026-05-06 13:51 | 49.45117 | -61.48126 | 35876 ft | 404 kts | 229° |
| 2026-05-06 13:51 | 49.41379 | -61.54548 | 35876 ft | 404 kts | 229° |
| 2026-05-06 13:52 | 49.37643 | -61.60952 | 35874 ft | 404 kts | 229° |
| 2026-05-06 13:52 | 49.33905 | -61.67342 | 35882 ft | 406 kts | 228° |
| 2026-05-06 13:53 | 49.30145 | -61.73755 | 35881 ft | 405 kts | 228° |
| 2026-05-06 13:53 | 49.26365 | -61.80181 | 35881 ft | 405 kts | 229° |
| 2026-05-06 13:54 | 49.22601 | -61.86571 | 35880 ft | 405 kts | 229° |
| 2026-05-06 13:54 | 49.18841 | -61.92937 | 35881 ft | 407 kts | 229° |
| 2026-05-06 13:55 | 49.15033 | -61.99369 | 35878 ft | 408 kts | 229° |
| 2026-05-06 13:55 | 49.11248 | -62.05743 | 35877 ft | 407 kts | 229° |
| 2026-05-06 13:56 | 49.07449 | -62.12129 | 35876 ft | 408 kts | 229° |
| 2026-05-06 13:56 | 49.03653 | -62.18492 | 35875 ft | 407 kts | 229° |
| 2026-05-06 13:57 | 48.99834 | -62.24877 | 35875 ft | 407 kts | 229° |
| 2026-05-06 13:57 | 48.96048 | -62.31193 | 35877 ft | 407 kts | 229° |
| 2026-05-06 13:58 | 48.92247 | -62.37519 | 35872 ft | 404 kts | 229° |
| 2026-05-06 13:58 | 48.88437 | -62.43843 | 35881 ft | 405 kts | 229° |
| 2026-05-06 13:59 | 48.84634 | -62.50140 | 35879 ft | 405 kts | 229° |
| 2026-05-06 13:59 | 48.80846 | -62.56397 | 35987 ft | 403 kts | 229° |
| 2026-05-06 14:00 | 48.77018 | -62.62706 | 35997 ft | 407 kts | 229° |
| 2026-05-06 14:00 | 48.73203 | -62.68976 | 36005 ft | 406 kts | 229° |
| 2026-05-06 14:01 | 48.69381 | -62.75246 | 36003 ft | 406 kts | 229° |
| 2026-05-06 14:01 | 48.65557 | -62.81507 | 36002 ft | 406 kts | 228° |
| 2026-05-06 14:02 | 48.61719 | -62.87769 | 36002 ft | 406 kts | 228° |
| 2026-05-06 14:02 | 48.57903 | -62.93982 | 36001 ft | 406 kts | 228° |
| 2026-05-06 14:03 | 48.54057 | -63.00229 | 36000 ft | 406 kts | 228° |
| 2026-05-06 14:03 | 48.50209 | -63.06465 | 35999 ft | 406 kts | 228° |
| 2026-05-06 14:04 | 48.46356 | -63.12693 | 35998 ft | 406 kts | 228° |
| 2026-05-06 14:04 | 48.42520 | -63.18880 | 35997 ft | 406 kts | 228° |
| 2026-05-06 14:05 | 48.38655 | -63.25098 | 35997 ft | 406 kts | 228° |
| 2026-05-06 14:05 | 48.34820 | -63.31253 | 35998 ft | 406 kts | 228° |
| 2026-05-06 14:06 | 48.30983 | -63.37398 | 35994 ft | 404 kts | 228° |
| 2026-05-06 14:06 | 48.27122 | -63.43567 | 35994 ft | 404 kts | 228° |
| 2026-05-06 14:07 | 48.23295 | -63.49666 | 35992 ft | 403 kts | 228° |
| 2026-05-06 14:07 | 48.19458 | -63.55769 | 35993 ft | 405 kts | 228° |
| 2026-05-06 14:08 | 48.15583 | -63.61916 | 35991 ft | 404 kts | 228° |
| 2026-05-06 14:08 | 48.11713 | -63.68039 | 36000 ft | 405 kts | 227° |
| 2026-05-06 14:09 | 48.07855 | -63.74130 | 35998 ft | 405 kts | 227° |
| 2026-05-06 14:09 | 48.04005 | -63.80195 | 35997 ft | 405 kts | 227° |
| 2026-05-06 14:10 | 48.00109 | -63.86318 | 35996 ft | 406 kts | 227° |
| 2026-05-06 14:10 | 47.96233 | -63.92395 | 35995 ft | 405 kts | 227° |
| 2026-05-06 14:11 | 47.92355 | -63.98463 | 35995 ft | 406 kts | 227° |
| 2026-05-06 14:11 | 47.88454 | -64.04549 | 36003 ft | 406 kts | 227° |
| 2026-05-06 14:12 | 47.84557 | -64.10618 | 36002 ft | 406 kts | 227° |
| 2026-05-06 14:12 | 47.80666 | -64.16662 | 36001 ft | 405 kts | 227° |
| 2026-05-06 14:13 | 47.76759 | -64.22716 | 36000 ft | 406 kts | 227° |
| 2026-05-06 14:13 | 47.72866 | -64.28737 | 35991 ft | 406 kts | 227° |
| 2026-05-06 14:14 | 47.68891 | -64.34869 | 36002 ft | 414 kts | 227° |
| 2026-05-06 14:14 | 47.64920 | -64.40981 | 35996 ft | 412 kts | 227° |
| 2026-05-06 14:15 | 47.60952 | -64.47073 | 35997 ft | 412 kts | 227° |
| 2026-05-06 14:15 | 47.56980 | -64.53156 | 35996 ft | 412 kts | 227° |
| 2026-05-06 14:16 | 47.53007 | -64.59228 | 35995 ft | 412 kts | 227° |
| 2026-05-06 14:16 | 47.49006 | -64.65329 | 35995 ft | 412 kts | 227° |
| 2026-05-06 14:17 | 47.45023 | -64.71389 | 36001 ft | 412 kts | 226° |
| 2026-05-06 14:17 | 47.41019 | -64.77465 | 36001 ft | 412 kts | 226° |
| 2026-05-06 14:18 | 47.37045 | -64.83482 | 35997 ft | 409 kts | 226° |
| 2026-05-06 14:18 | 47.33106 | -64.89433 | 36000 ft | 408 kts | 226° |
| 2026-05-06 14:19 | 47.29122 | -64.95438 | 35998 ft | 409 kts | 226° |
| 2026-05-06 14:19 | 47.25153 | -65.01407 | 35997 ft | 408 kts | 226° |
| 2026-05-06 14:20 | 47.21177 | -65.07371 | 36000 ft | 411 kts | 227° |
| 2026-05-06 14:20 | 47.17143 | -65.13411 | 35996 ft | 413 kts | 227° |
| 2026-05-06 14:21 | 47.13137 | -65.19395 | 35995 ft | 413 kts | 227° |
| 2026-05-06 14:21 | 47.09100 | -65.25408 | 35941 ft | 414 kts | 227° |
| 2026-05-06 14:22 | 47.05076 | -65.31395 | 35893 ft | 412 kts | 226° |
| 2026-05-06 14:22 | 47.01040 | -65.37381 | 35893 ft | 413 kts | 226° |
| 2026-05-06 14:23 | 46.97003 | -65.43354 | 35891 ft | 413 kts | 226° |
| 2026-05-06 14:23 | 46.92966 | -65.49316 | 35891 ft | 413 kts | 226° |
| 2026-05-06 14:24 | 46.88925 | -65.55269 | 35896 ft | 413 kts | 226° |
| 2026-05-06 14:24 | 46.84874 | -65.61221 | 35897 ft | 413 kts | 226° |
| 2026-05-06 14:25 | 46.80833 | -65.67149 | 35904 ft | 413 kts | 226° |
| 2026-05-06 14:25 | 46.76786 | -65.73069 | 35903 ft | 413 kts | 226° |
| 2026-05-06 14:26 | 46.72719 | -65.79004 | 35902 ft | 416 kts | 226° |
| 2026-05-06 14:26 | 46.68626 | -65.84969 | 35900 ft | 417 kts | 226° |
| 2026-05-06 14:27 | 46.64534 | -65.90916 | 35901 ft | 416 kts | 226° |
| 2026-05-06 14:27 | 46.60434 | -65.96860 | 35900 ft | 416 kts | 226° |
| 2026-05-06 14:28 | 46.56341 | -66.02783 | 35899 ft | 416 kts | 226° |
| 2026-05-06 14:28 | 46.52221 | -66.08730 | 35898 ft | 416 kts | 226° |
| 2026-05-06 14:29 | 46.48109 | -66.14652 | 35947 ft | 419 kts | 226° |
| 2026-05-06 14:29 | 46.43978 | -66.20589 | 35942 ft | 418 kts | 226° |
| 2026-05-06 14:30 | 46.39852 | -66.26504 | 35942 ft | 418 kts | 226° |
| 2026-05-06 14:30 | 46.35746 | -66.32378 | 35935 ft | 413 kts | 226° |
| 2026-05-06 14:31 | 46.31674 | -66.38189 | 35940 ft | 409 kts | 226° |
| 2026-05-06 14:31 | 46.27631 | -66.43948 | 35939 ft | 411 kts | 226° |
| 2026-05-06 14:32 | 46.23568 | -66.49721 | 35938 ft | 410 kts | 226° |
| 2026-05-06 14:32 | 46.19504 | -66.55485 | 35938 ft | 410 kts | 226° |
| 2026-05-06 14:33 | 46.15411 | -66.61277 | 35940 ft | 414 kts | 226° |
| 2026-05-06 14:33 | 46.11298 | -66.67081 | 35944 ft | 413 kts | 226° |
| 2026-05-06 14:34 | 46.07190 | -66.72868 | 35944 ft | 413 kts | 226° |
| 2026-05-06 14:34 | 46.03092 | -66.78629 | 35939 ft | 415 kts | 226° |
| 2026-05-06 14:35 | 45.98936 | -66.84458 | 35944 ft | 420 kts | 226° |
| 2026-05-06 14:35 | 45.94754 | -66.90308 | 35942 ft | 419 kts | 226° |
| 2026-05-06 14:36 | 45.90581 | -66.96134 | 35936 ft | 419 kts | 226° |
| 2026-05-06 14:36 | 45.86417 | -67.01936 | 35938 ft | 418 kts | 226° |
| 2026-05-06 14:37 | 45.82238 | -67.07746 | 35937 ft | 418 kts | 226° |
| 2026-05-06 14:37 | 45.78059 | -67.13541 | 35936 ft | 418 kts | 226° |
| 2026-05-06 14:38 | 45.73900 | -67.19298 | 35936 ft | 418 kts | 226° |
| 2026-05-06 14:38 | 45.69720 | -67.25066 | 35937 ft | 422 kts | 227° |
| 2026-05-06 14:39 | 45.65492 | -67.30898 | 35935 ft | 421 kts | 227° |
| 2026-05-06 14:39 | 45.61320 | -67.36631 | 35932 ft | 418 kts | 227° |
| 2026-05-06 14:40 | 45.57156 | -67.42345 | 35932 ft | 419 kts | 227° |
| 2026-05-06 14:40 | 45.52962 | -67.48086 | 35931 ft | 419 kts | 227° |
| 2026-05-06 14:41 | 45.48752 | -67.53837 | 35931 ft | 419 kts | 227° |
| 2026-05-06 14:41 | 45.44582 | -67.59520 | 35930 ft | 419 kts | 227° |
| 2026-05-06 14:42 | 45.40353 | -67.65272 | 35930 ft | 419 kts | 226° |
| 2026-05-06 14:42 | 45.36156 | -67.70967 | 35938 ft | 419 kts | 226° |
| 2026-05-06 14:43 | 45.32090 | -67.76789 | 35937 ft | 417 kts | 231° |
| 2026-05-06 14:43 | 45.28234 | -67.82967 | 36001 ft | 419 kts | 230° |
| 2026-05-06 14:44 | 45.24339 | -67.89126 | 35999 ft | 418 kts | 230° |
| 2026-05-06 14:45 | 45.18515 | -67.98279 | 35999 ft | 419 kts | 231° |
| 2026-05-06 14:45 | 45.14615 | -68.04389 | 35998 ft | 419 kts | 231° |
| 2026-05-06 14:46 | 45.10745 | -68.10439 | 35997 ft | 419 kts | 231° |
| 2026-05-06 14:46 | 45.06838 | -68.16534 | 35997 ft | 419 kts | 231° |
| 2026-05-06 14:47 | 45.02922 | -68.22626 | 35996 ft | 419 kts | 231° |
| 2026-05-06 14:47 | 44.99012 | -68.28697 | 35995 ft | 419 kts | 231° |
| 2026-05-06 14:48 | 44.95094 | -68.34769 | 35995 ft | 419 kts | 231° |
| 2026-05-06 14:48 | 44.91169 | -68.40836 | 35994 ft | 419 kts | 231° |
| 2026-05-06 14:49 | 44.87249 | -68.46882 | 35997 ft | 419 kts | 231° |
| 2026-05-06 14:49 | 44.83317 | -68.52934 | 35996 ft | 419 kts | 231° |
| 2026-05-06 14:50 | 44.79408 | -68.58937 | 35995 ft | 419 kts | 231° |
| 2026-05-06 14:50 | 44.75462 | -68.64984 | 35973 ft | 420 kts | 231° |
| 2026-05-06 14:51 | 44.71548 | -68.70972 | 35893 ft | 422 kts | 230° |
| 2026-05-06 14:51 | 44.67555 | -68.77067 | 35905 ft | 432 kts | 230° |
| 2026-05-06 14:52 | 44.63519 | -68.83209 | 35899 ft | 430 kts | 230° |
| 2026-05-06 14:52 | 44.59511 | -68.89298 | 35900 ft | 430 kts | 230° |
| 2026-05-06 14:53 | 44.55451 | -68.95451 | 35899 ft | 431 kts | 230° |
| 2026-05-06 14:53 | 44.51370 | -69.01623 | 35899 ft | 431 kts | 230° |
| 2026-05-06 14:54 | 44.47301 | -69.07765 | 35898 ft | 431 kts | 230° |
| 2026-05-06 14:54 | 44.43230 | -69.13894 | 35898 ft | 431 kts | 230° |
| 2026-05-06 14:55 | 44.39135 | -69.20049 | 35897 ft | 431 kts | 230° |
| 2026-05-06 14:55 | 44.35047 | -69.26177 | 35897 ft | 431 kts | 230° |
| 2026-05-06 14:56 | 44.32632 | -69.29792 | 35896 ft | 431 kts | 230° |
| 2026-05-06 14:56 | 44.28525 | -69.35926 | 35896 ft | 431 kts | 230° |
| 2026-05-06 14:57 | 44.24459 | -69.41989 | 35895 ft | 431 kts | 230° |
| 2026-05-06 14:57 | 44.20354 | -69.48097 | 35895 ft | 433 kts | 229° |
| 2026-05-06 14:58 | 44.16251 | -69.54184 | 35882 ft | 431 kts | 229° |
| 2026-05-06 14:58 | 44.12160 | -69.60244 | 35885 ft | 431 kts | 229° |